createdAt,value
2022-12-03T00:00:53.018Z,99567.97
2022-12-03T00:03:26.863Z,99568.20
2022-12-03T00:05:58.695Z,99572.08
2022-12-03T00:08:30.229Z,99573.95
2022-12-03T00:11:01.803Z,99569.74
2022-12-03T00:13:33.514Z,99566.19
2022-12-03T00:16:05.553Z,99569.45
2022-12-03T00:18:37.121Z,99568.38
2022-12-03T00:21:09.271Z,99568.27
2022-12-03T00:23:42.466Z,99573.95
2022-12-03T00:26:12.801Z,99575.25
2022-12-03T00:28:44.404Z,99576.91
2022-12-03T00:31:16.149Z,99575.95
2022-12-03T00:33:47.778Z,99570.91
2022-12-03T00:36:20.080Z,99573.58
2022-12-03T00:38:51.748Z,99563.73
2022-12-03T00:41:23.237Z,99561.86
2022-12-03T00:43:57.477Z,99563.26
2022-12-03T00:46:29.454Z,99562.10
2022-12-03T00:49:01.175Z,99555.97
2022-12-03T00:51:32.786Z,99550.94
2022-12-03T00:54:04.532Z,99551.52
2022-12-03T00:56:36.042Z,99549.48
2022-12-03T00:59:07.523Z,99547.87
2022-12-03T01:01:39.110Z,99542.39
2022-12-03T01:04:10.771Z,99536.44
2022-12-03T01:06:42.475Z,99540.95
2022-12-03T01:09:14.098Z,99541.34
2022-12-03T01:11:45.608Z,99537.43
2022-12-03T01:14:19.708Z,99541.04
2022-12-03T01:16:51.483Z,99544.85
2022-12-03T01:19:24.234Z,99546.85
2022-12-03T01:21:56.188Z,99542.63
2022-12-03T01:24:27.961Z,99534.93
2022-12-03T01:26:59.500Z,99539.28
2022-12-03T01:29:31.053Z,99541.44
2022-12-03T01:32:19.450Z,99541.84
2022-12-03T01:34:53.299Z,99540.09
2022-12-03T01:37:26.939Z,99537.27
2022-12-03T01:39:58.633Z,99539.29
2022-12-03T01:42:34.344Z,99538.33
2022-12-03T01:45:07.627Z,99532.41
2022-12-03T01:47:41.324Z,99530.54
2022-12-03T01:50:20.565Z,99530.42
2022-12-03T01:52:52.201Z,99527.88
2022-12-03T01:55:26.000Z,99529.73
2022-12-03T01:58:00.656Z,99533.47
2022-12-03T02:00:32.681Z,99537.02
2022-12-03T02:03:12.520Z,99534.02
2022-12-03T02:05:44.137Z,99536.23
2022-12-03T02:08:33.599Z,99533.46
2022-12-03T02:11:09.306Z,99528.90
2022-12-03T02:13:41.053Z,99530.33
2022-12-03T02:16:12.802Z,99530.07
2022-12-03T02:18:44.969Z,99528.94
2022-12-03T02:21:25.088Z,99526.39
2022-12-03T02:24:05.198Z,99528.89
2022-12-03T02:26:36.713Z,99533.80
2022-12-03T02:29:08.451Z,99534.34
2022-12-03T02:31:40.117Z,99546.57
2022-12-03T02:34:12.691Z,99546.33
2022-12-03T02:36:44.210Z,99544.79
2022-12-03T02:39:15.702Z,99546.08
2022-12-03T02:42:05.040Z,99546.61
2022-12-03T02:44:36.842Z,99543.02
2022-12-03T02:47:08.548Z,99547.70
2022-12-03T02:49:40.512Z,99545.35
2022-12-03T02:52:12.149Z,99546.94
2022-12-03T02:54:44.158Z,99543.29
2022-12-03T02:57:16.144Z,99533.61
2022-12-03T02:59:48.632Z,99530.33
2022-12-03T03:02:21.600Z,99533.05
2022-12-03T03:04:53.915Z,99523.41
2022-12-03T03:07:26.076Z,99532.20
2022-12-03T03:09:58.903Z,99539.77
2022-12-03T03:12:32.628Z,99533.04
2022-12-03T03:15:11.162Z,99535.42
2022-12-03T03:17:43.828Z,99535.50
2022-12-03T03:20:16.401Z,99537.14
2022-12-03T03:22:48.060Z,99530.86
2022-12-03T03:25:22.445Z,99525.89
2022-12-03T03:27:54.007Z,99532.97
2022-12-03T03:30:25.515Z,99537.08
2022-12-03T03:32:57.430Z,99533.92
2022-12-03T03:35:29.696Z,99537.92
2022-12-03T03:38:01.548Z,99537.45
2022-12-03T03:40:33.370Z,99538.06
2022-12-03T03:43:05.704Z,99532.70
2022-12-03T03:45:37.424Z,99533.02
2022-12-03T03:48:09.594Z,99531.63
2022-12-03T03:50:41.832Z,99529.58
2022-12-03T03:53:14.078Z,99532.76
2022-12-03T03:55:46.058Z,99531.49
2022-12-03T03:58:17.891Z,99524.86
2022-12-03T04:00:49.528Z,99522.98
2022-12-03T04:03:21.137Z,99524.39
2022-12-03T04:05:52.717Z,99528.27
2022-12-03T04:08:24.237Z,99525.58
2022-12-03T04:11:13.060Z,99525.73
2022-12-03T04:13:44.677Z,99525.45
2022-12-03T04:16:16.196Z,99531.52
2022-12-03T04:18:47.926Z,99532.04
2022-12-03T04:21:39.167Z,99528.57
2022-12-03T04:24:12.484Z,99528.84
2022-12-03T04:27:01.945Z,99525.63
2022-12-03T04:29:33.490Z,99531.65
2022-12-03T04:32:22.638Z,99539.50
2022-12-03T04:35:11.735Z,99535.58
2022-12-03T04:37:43.622Z,99529.61
2022-12-03T04:40:29.844Z,99527.84
2022-12-03T04:43:01.339Z,99530.58
2022-12-03T04:45:32.897Z,99533.74
2022-12-03T04:48:04.654Z,99533.89
2022-12-03T04:50:36.215Z,99534.63
2022-12-03T04:53:07.772Z,99534.84
2022-12-03T04:55:39.257Z,99531.70
2022-12-03T04:58:11.432Z,99526.39
2022-12-03T05:00:42.997Z,99519.59
2022-12-03T05:03:14.549Z,99514.02
2022-12-03T05:05:47.572Z,99514.95
2022-12-03T05:08:19.120Z,99513.70
2022-12-03T05:10:50.775Z,99516.17
2022-12-03T05:13:22.316Z,99518.33
2022-12-03T05:15:53.927Z,99520.06
2022-12-03T05:18:25.521Z,99515.61
2022-12-03T05:20:57.252Z,99517.20
2022-12-03T05:23:28.880Z,99515.95
2022-12-03T05:26:00.494Z,99512.02
2022-12-03T05:28:32.198Z,99513.95
2022-12-03T05:31:05.221Z,99512.21
2022-12-03T05:33:42.456Z,99511.40
2022-12-03T05:36:15.867Z,99508.36
2022-12-03T05:38:47.579Z,99509.09
2022-12-03T05:41:36.930Z,99507.80
2022-12-03T05:44:08.700Z,99508.46
2022-12-03T05:46:40.251Z,99511.20
2022-12-03T05:49:11.815Z,99510.83
2022-12-03T05:51:43.303Z,99515.63
2022-12-03T05:54:14.783Z,99517.50
2022-12-03T05:56:46.345Z,99516.69
2022-12-03T05:59:17.970Z,99523.25
2022-12-03T06:01:49.627Z,99522.81
2022-12-03T06:04:21.241Z,99518.30
2022-12-03T06:06:52.764Z,99517.31
2022-12-03T06:09:24.286Z,99517.55
2022-12-03T06:11:55.915Z,99517.81
2022-12-03T06:14:30.112Z,99519.71
2022-12-03T06:17:01.631Z,99524.75
2022-12-03T06:19:33.585Z,99532.02
2022-12-03T06:22:05.128Z,99529.61
2022-12-03T06:24:36.614Z,99525.16
2022-12-03T06:27:08.456Z,99523.27
2022-12-03T06:29:40.206Z,99527.84
2022-12-03T06:32:12.377Z,99529.90
2022-12-03T06:34:43.889Z,99532.27
2022-12-03T06:37:15.413Z,99534.50
2022-12-03T06:39:46.956Z,99537.02
2022-12-03T06:42:18.502Z,99534.44
2022-12-03T06:44:49.971Z,99540.22
2022-12-03T06:47:21.488Z,99548.11
2022-12-03T06:49:52.968Z,99549.08
2022-12-03T06:52:24.433Z,99550.27
2022-12-03T06:54:56.219Z,99550.98
2022-12-03T06:57:28.102Z,99552.65
2022-12-03T06:59:59.623Z,99553.63
2022-12-03T07:02:31.184Z,99556.89
2022-12-03T07:05:03.006Z,99562.73
2022-12-03T07:07:34.644Z,99565.19
2022-12-03T07:10:07.853Z,99566.34
2022-12-03T07:12:39.358Z,99561.87
2022-12-03T07:15:12.319Z,99558.73
2022-12-03T07:17:43.898Z,99555.77
2022-12-03T07:20:16.758Z,99554.13
2022-12-03T07:22:48.293Z,99551.73
2022-12-03T07:25:23.463Z,99553.16
2022-12-03T07:27:55.513Z,99559.64
2022-12-03T07:30:27.910Z,99562.89
2022-12-03T07:32:59.669Z,99565.84
2022-12-03T07:35:31.297Z,99568.65
2022-12-03T07:38:02.933Z,99571.08
2022-12-03T07:40:34.479Z,99568.54
2022-12-03T07:43:06.133Z,99573.08
2022-12-03T07:45:37.668Z,99569.68
2022-12-03T07:48:09.304Z,99569.70
2022-12-03T07:50:40.895Z,99568.88
2022-12-03T07:53:12.418Z,99564.96
2022-12-03T07:55:43.958Z,99564.56
2022-12-03T07:58:15.495Z,99563.28
2022-12-03T08:00:47.020Z,99557.23
2022-12-03T08:03:18.584Z,99558.77
2022-12-03T08:05:50.129Z,99556.81
2022-12-03T08:08:21.791Z,99554.17
2022-12-03T08:10:53.284Z,99555.60
2022-12-03T08:13:24.803Z,99552.39
2022-12-03T08:15:58.872Z,99553.23
2022-12-03T08:18:31.130Z,99559.05
2022-12-03T08:21:02.903Z,99556.68
2022-12-03T08:23:35.578Z,99556.00
2022-12-03T08:26:14.151Z,99550.08
2022-12-03T08:28:45.765Z,99553.94
2022-12-03T08:31:25.786Z,99551.63
2022-12-03T08:34:16.692Z,99557.10
2022-12-03T08:36:52.262Z,99553.73
2022-12-03T08:39:33.479Z,99550.66
2022-12-03T08:42:35.500Z,99546.65
2022-12-03T08:45:35.276Z,99554.80
2022-12-03T08:51:22.249Z,99560.32
2022-12-03T08:54:12.894Z,99560.25
2022-12-03T08:59:36.427Z,99566.44
2022-12-03T09:02:19.860Z,99570.23
2022-12-03T09:04:53.317Z,99573.55
2022-12-03T09:07:25.349Z,99566.45
2022-12-03T09:09:57.297Z,99567.19
2022-12-03T09:12:28.919Z,99567.86
2022-12-03T09:15:00.474Z,99566.84
2022-12-03T09:17:32.266Z,99562.47
2022-12-03T09:20:05.414Z,99566.29
2022-12-03T09:22:36.937Z,99555.70
2022-12-03T09:25:09.776Z,99568.68
2022-12-03T09:27:41.315Z,99563.72
2022-12-03T09:30:14.505Z,99569.01
2022-12-03T09:32:46.085Z,99565.99
2022-12-03T09:35:17.846Z,99570.41
2022-12-03T09:37:49.440Z,99572.14
2022-12-03T09:40:21.477Z,99571.86
2022-12-03T09:42:53.703Z,99568.96
2022-12-03T09:45:25.284Z,99570.90
2022-12-03T09:47:57.716Z,99572.61
2022-12-03T09:50:29.719Z,99573.68
2022-12-03T09:53:04.579Z,99571.52
2022-12-03T09:55:36.437Z,99576.32
2022-12-03T09:58:13.475Z,99573.39
2022-12-03T10:00:48.137Z,99565.96
2022-12-03T10:03:29.454Z,99563.47
2022-12-03T10:06:01.517Z,99568.21
2022-12-03T10:08:33.500Z,99565.27
2022-12-03T10:11:05.105Z,99562.27
2022-12-03T10:13:38.594Z,99559.73
2022-12-03T10:16:13.492Z,99558.81
2022-12-03T10:18:48.531Z,99560.69
2022-12-03T10:24:27.026Z,99554.28
2022-12-03T10:27:00.612Z,99552.70
2022-12-03T10:29:34.219Z,99545.25
2022-12-03T10:38:03.409Z,99552.27
2022-12-03T10:40:36.960Z,99548.40
2022-12-03T10:43:24.387Z,99547.92
2022-12-03T10:46:13.615Z,99545.86
2022-12-03T10:48:45.229Z,99538.16
2022-12-03T10:51:21.257Z,99532.13
2022-12-03T10:53:54.301Z,99535.81
2022-12-03T10:56:27.823Z,99537.58
2022-12-03T10:58:58.321Z,99536.33
2022-12-03T11:04:36.842Z,99532.41
2022-12-03T11:10:13.948Z,99524.92
2022-12-03T11:13:05.991Z,99521.48
2022-12-03T11:15:46.237Z,99522.96
2022-12-03T11:19:03.228Z,99516.73
2022-12-03T11:21:34.905Z,99524.16
2022-12-03T11:24:21.732Z,99522.23
2022-12-03T11:27:25.481Z,99525.27
2022-12-03T11:30:02.433Z,99527.30
2022-12-03T11:33:06.432Z,99519.78
2022-12-03T11:36:15.478Z,99517.45
2022-12-03T11:39:03.918Z,99515.64
2022-12-03T11:41:36.821Z,99514.87
2022-12-03T11:44:32.216Z,99520.95
2022-12-03T11:47:14.753Z,99517.84
2022-12-03T11:49:50.198Z,99515.48
2022-12-03T11:55:34.398Z,99503.08
2022-12-03T11:58:14.508Z,99505.92
2022-12-03T12:01:04.794Z,99501.54
2022-12-03T12:03:39.636Z,99498.25
2022-12-03T12:06:13.403Z,99489.03
2022-12-03T12:08:58.534Z,99485.60
2022-12-03T12:11:31.879Z,99484.50
2022-12-03T12:14:04.806Z,99487.02
2022-12-03T12:16:51.699Z,99486.44
2022-12-03T12:22:32.454Z,99486.02
2022-12-03T12:25:06.088Z,99484.71
2022-12-03T12:27:45.347Z,99485.02
2022-12-03T12:30:18.518Z,99485.69
2022-12-03T12:32:52.613Z,99488.05
2022-12-03T12:35:35.328Z,99487.88
2022-12-03T12:38:18.762Z,99486.59
2022-12-03T12:40:53.530Z,99477.50
2022-12-03T12:43:31.890Z,99470.67
2022-12-03T12:46:46.035Z,99472.00
2022-12-03T12:49:12.255Z,99472.44
2022-12-03T12:54:36.042Z,99465.45
2022-12-03T12:57:14.053Z,99461.56
2022-12-03T12:59:45.640Z,99458.59
2022-12-03T13:02:39.525Z,99458.34
2022-12-03T13:08:10.111Z,99465.55
2022-12-03T13:10:43.464Z,99467.35
2022-12-03T13:16:12.971Z,99474.34
2022-12-03T13:18:48.025Z,99475.61
2022-12-03T13:27:48.415Z,99477.36
2022-12-03T13:30:24.955Z,99483.59
2022-12-03T13:33:07.639Z,99482.34
2022-12-03T13:38:29.129Z,99483.84
2022-12-03T13:41:07.081Z,99488.42
2022-12-03T13:43:44.532Z,99492.81
2022-12-03T13:49:16.776Z,99487.00
2022-12-03T13:51:48.973Z,99485.21
2022-12-03T13:54:24.928Z,99486.42
2022-12-03T13:59:45.974Z,99480.15
2022-12-03T14:02:17.614Z,99481.10
2022-12-03T14:04:55.362Z,99486.41
2022-12-03T14:07:30.521Z,99480.38
2022-12-03T14:10:02.204Z,99478.36
2022-12-03T14:12:37.992Z,99473.13
2022-12-03T14:15:11.500Z,99474.11
2022-12-03T14:17:41.504Z,99474.77
2022-12-03T14:20:14.604Z,99474.23
2022-12-03T14:22:46.395Z,99473.11
2022-12-03T14:25:29.655Z,99471.17
2022-12-03T14:28:01.392Z,99475.34
2022-12-03T14:30:32.925Z,99472.44
2022-12-03T14:33:04.441Z,99470.77
2022-12-03T14:35:36.007Z,99466.45
2022-12-03T14:38:07.559Z,99469.69
2022-12-03T14:40:40.314Z,99470.80
2022-12-03T14:48:43.993Z,99476.96
2022-12-03T14:51:25.710Z,99479.86
2022-12-03T14:53:57.204Z,99480.85
2022-12-03T14:56:34.443Z,99482.95
2022-12-03T14:59:07.131Z,99476.55
2022-12-03T15:01:38.841Z,99484.63
2022-12-03T15:06:57.153Z,99486.60
2022-12-03T15:09:28.692Z,99493.75
2022-12-03T15:14:46.209Z,99488.03
2022-12-03T15:20:10.227Z,99484.09
2022-12-03T15:22:41.818Z,99486.34
2022-12-03T15:25:13.665Z,99490.67
2022-12-03T15:27:45.252Z,99490.19
2022-12-03T15:30:17.629Z,99492.98
2022-12-03T15:35:39.421Z,99495.25
2022-12-03T15:43:55.028Z,99491.10
2022-12-03T15:46:28.217Z,99498.53
2022-12-03T15:49:12.870Z,99496.55
2022-12-03T15:54:45.407Z,99494.10
2022-12-03T16:00:15.577Z,99493.31
2022-12-03T16:02:52.646Z,99494.12
2022-12-03T16:05:27.660Z,99492.48
2022-12-03T16:07:59.247Z,99492.09
2022-12-03T16:13:17.603Z,99500.45
2022-12-03T16:15:49.270Z,99495.98
2022-12-03T16:18:20.971Z,99500.21
2022-12-03T16:20:52.500Z,99495.98
2022-12-03T16:23:35.523Z,99492.14
2022-12-03T16:26:10.183Z,99491.97
2022-12-03T16:28:41.947Z,99491.58
2022-12-03T16:31:14.068Z,99486.62
2022-12-03T16:33:45.674Z,99482.95
2022-12-03T16:36:17.857Z,99478.57
2022-12-03T16:41:34.795Z,99480.02
2022-12-03T16:44:06.628Z,99484.02
2022-12-03T16:49:24.781Z,99480.31
2022-12-03T16:54:47.653Z,99481.32
2022-12-03T17:00:11.626Z,99469.81
2022-12-03T17:02:43.312Z,99473.39
2022-12-03T17:05:15.200Z,99478.84
2022-12-03T17:07:46.802Z,99474.45
2022-12-03T17:10:18.481Z,99471.55
2022-12-03T17:15:42.196Z,99472.80
2022-12-03T17:18:13.927Z,99472.69
2022-12-03T17:20:45.507Z,99474.16
2022-12-03T17:23:18.516Z,99468.02
2022-12-03T17:25:49.987Z,99468.38
2022-12-03T17:28:21.525Z,99466.59
2022-12-03T17:30:53.132Z,99475.34
2022-12-03T17:33:24.781Z,99466.34
2022-12-03T17:35:56.292Z,99459.23
2022-12-03T17:38:28.059Z,99458.80
2022-12-03T17:40:59.531Z,99449.05
2022-12-03T17:43:31.038Z,99449.13
2022-12-03T17:46:02.575Z,99448.48
2022-12-03T17:48:35.272Z,99446.33
2022-12-03T17:51:07.318Z,99446.14
2022-12-03T17:53:38.837Z,99443.15
2022-12-03T17:56:10.633Z,99448.83
2022-12-03T17:58:42.129Z,99445.92
2022-12-03T18:01:14.217Z,99442.18
2022-12-03T18:03:45.760Z,99439.67
2022-12-03T18:06:17.295Z,99436.50
2022-12-03T18:08:48.796Z,99439.55
2022-12-03T18:11:20.367Z,99438.70
2022-12-03T18:13:52.968Z,99439.11
2022-12-03T18:16:25.782Z,99437.14
2022-12-03T18:19:00.902Z,99439.92
2022-12-03T18:21:36.636Z,99434.50
2022-12-03T18:24:10.157Z,99436.42
2022-12-03T18:26:40.286Z,99427.30
2022-12-03T18:29:11.786Z,99429.88
2022-12-03T18:31:43.354Z,99427.40
2022-12-03T18:34:14.962Z,99421.80
2022-12-03T18:36:46.976Z,99420.77
2022-12-03T18:39:25.860Z,99421.92
2022-12-03T18:41:57.426Z,99420.55
2022-12-03T18:44:29.087Z,99425.48
2022-12-03T18:47:02.463Z,99419.85
2022-12-03T18:49:32.631Z,99420.52
2022-12-03T18:52:04.305Z,99417.55
2022-12-03T18:54:36.108Z,99415.55
2022-12-03T18:57:07.822Z,99415.16
2022-12-03T18:59:39.568Z,99411.23
2022-12-03T19:02:38.665Z,99406.34
2022-12-03T19:05:10.468Z,99408.23
2022-12-03T19:07:43.292Z,99407.59
2022-12-03T19:10:15.223Z,99411.57
2022-12-03T19:12:46.805Z,99411.33
2022-12-03T19:15:18.896Z,99415.36
2022-12-03T19:17:52.328Z,99412.30
2022-12-03T19:20:23.860Z,99413.98
2022-12-03T19:22:55.538Z,99419.59
2022-12-03T19:25:27.071Z,99420.52
2022-12-03T19:27:58.642Z,99419.55
2022-12-03T19:30:30.262Z,99422.02
2022-12-03T19:33:01.880Z,99422.36
2022-12-03T19:35:33.528Z,99421.48
2022-12-03T19:38:05.080Z,99428.48
2022-12-03T19:40:36.613Z,99422.30
2022-12-03T19:43:08.131Z,99422.22
2022-12-03T19:45:39.708Z,99425.14
2022-12-03T19:48:11.221Z,99418.06
2022-12-03T19:51:02.948Z,99420.06
2022-12-03T19:53:42.687Z,99424.54
2022-12-03T19:56:16.145Z,99425.09
2022-12-03T19:58:48.639Z,99426.36
2022-12-03T20:01:22.049Z,99428.25
2022-12-03T20:03:55.576Z,99426.83
2022-12-03T20:06:30.631Z,99430.03
2022-12-03T20:09:04.881Z,99426.26
2022-12-03T20:11:37.146Z,99425.98
2022-12-03T20:14:10.542Z,99424.92
2022-12-03T20:16:42.787Z,99424.02
2022-12-03T20:19:17.431Z,99425.20
2022-12-03T20:21:49.297Z,99421.77
2022-12-03T20:24:20.905Z,99420.65
2022-12-03T20:26:52.623Z,99411.02
2022-12-03T20:29:24.146Z,99411.94
2022-12-03T20:31:56.015Z,99415.81
2022-12-03T20:34:27.633Z,99413.86
2022-12-03T20:36:59.131Z,99412.36
2022-12-03T20:39:30.674Z,99413.61
2022-12-03T20:42:02.179Z,99413.33
2022-12-03T20:44:33.780Z,99415.84
2022-12-03T20:47:05.449Z,99411.79
2022-12-03T20:49:40.261Z,99409.13
2022-12-03T20:52:12.119Z,99411.61
2022-12-03T20:54:43.669Z,99408.62
2022-12-03T20:57:15.153Z,99407.81
2022-12-03T20:59:46.699Z,99410.44
2022-12-03T21:02:18.248Z,99400.75
2022-12-03T21:04:50.147Z,99403.21
2022-12-03T21:07:22.698Z,99411.20
2022-12-03T21:09:54.799Z,99410.14
2022-12-03T21:12:28.015Z,99407.70
2022-12-03T21:14:59.707Z,99407.64
2022-12-03T21:17:31.253Z,99415.27
2022-12-03T21:20:02.927Z,99414.17
2022-12-03T21:22:34.405Z,99414.98
2022-12-03T21:25:06.944Z,99419.95
2022-12-03T21:27:38.594Z,99420.59
2022-12-03T21:30:11.698Z,99418.64
2022-12-03T21:32:43.162Z,99400.33
2022-12-03T21:35:14.946Z,99415.73
2022-12-03T21:37:46.550Z,99416.63
2022-12-03T21:40:18.514Z,99416.86
2022-12-03T21:42:50.043Z,99414.02
2022-12-03T21:45:25.027Z,99416.37
2022-12-03T21:47:56.756Z,99421.69
2022-12-03T21:50:28.449Z,99420.82
2022-12-03T21:52:59.943Z,99422.41
2022-12-03T21:55:31.476Z,99421.76
2022-12-03T21:58:03.030Z,99418.95
2022-12-03T22:00:34.618Z,99419.67
2022-12-03T22:03:06.209Z,99413.81
2022-12-03T22:05:40.077Z,99414.23
2022-12-03T22:08:13.774Z,99409.47
2022-12-03T22:10:45.392Z,99405.61
2022-12-03T22:13:16.962Z,99402.45
2022-12-03T22:15:48.613Z,99407.71
2022-12-03T22:18:20.241Z,99406.11
2022-12-03T22:20:51.833Z,99406.29
2022-12-03T22:23:23.391Z,99407.99
2022-12-03T22:26:02.212Z,99398.02
2022-12-03T22:28:34.591Z,99395.05
2022-12-03T22:31:09.568Z,99398.15
2022-12-03T22:33:41.857Z,99392.94
2022-12-03T22:36:20.607Z,99396.70
2022-12-03T22:38:54.135Z,99398.17
2022-12-03T22:41:25.673Z,99383.05
2022-12-03T22:43:57.180Z,99390.21
2022-12-03T22:46:28.769Z,99382.13
2022-12-03T22:49:06.500Z,99387.14
2022-12-03T22:51:38.758Z,99390.06
2022-12-03T22:54:11.507Z,99383.98
2022-12-03T22:56:42.988Z,99384.40
2022-12-03T22:59:14.724Z,99379.88
2022-12-03T23:01:46.292Z,99379.63
2022-12-03T23:04:17.953Z,99382.60
2022-12-03T23:06:49.661Z,99375.52
2022-12-03T23:09:21.261Z,99367.20
2022-12-03T23:11:52.817Z,99374.10
2022-12-03T23:14:24.363Z,99375.32
2022-12-03T23:16:55.863Z,99376.11
2022-12-03T23:19:27.368Z,99369.80
2022-12-03T23:21:59.276Z,99366.90
2022-12-03T23:24:30.757Z,99360.36
2022-12-03T23:27:02.251Z,99359.60
2022-12-03T23:29:35.135Z,99364.52
2022-12-03T23:32:06.801Z,99366.55
2022-12-03T23:34:38.384Z,99364.67
2022-12-03T23:37:10.046Z,99366.14
2022-12-03T23:39:41.764Z,99360.40
2022-12-03T23:42:13.273Z,99356.81
2022-12-03T23:44:44.841Z,99355.23
2022-12-03T23:47:17.658Z,99351.11
2022-12-03T23:49:49.239Z,99348.06
2022-12-03T23:52:20.766Z,99349.91
2022-12-03T23:54:52.372Z,99348.48
2022-12-03T23:57:23.910Z,99349.70
2022-12-03T23:59:55.634Z,99345.23
